Peristerion, Greece
Current Conditions -  °F | °C
As of 8:20 AM on Tuesday 21 Oct 2014 (Local Time) from LGEL Reporting Station
Clear Clear  
Wind Chill: 54°   Ceiling: Unl
Heat Index: 54°   Visibility: 6mi
Dew Point: 43°   Wind: 8mph
Humidity: 67%   Direction: 340°NNW
Pressure: 30"   Gusts: NA
Location:  38.02°N, 23.7°E
Report Text: LGEL 210520Z 34007KT CAVOK 12/06 Q1016
Loading
Personal Weather Stations






























Interactive Weather Map New forecast layout! Learn more

10-Day Weather Forecast

Advertisements
Track Severe Weather on mobile